Time;durP1;ratioP1;P1;durP2;ratioP2;P2;SDS_P1;SDS_P2;PMS_P1;PMS_P2;Temp;Humidity;BMP_temperature;BMP_pressure;BME280_temperature;BME280_humidity;BME280_pressure;Samples;Min_cycle;Max_cycle;Signal;HPM_P1;HPM_P2
2021/10/16 00:01:38;;;;;;;7.95;5.60;;;13.00;1.00;;;;;;5072649;28;20210;-74
2021/10/16 00:04:05;;;;;;;7.40;4.78;;;13.00;1.00;;;;;;5072821;28;20206;-77
2021/10/16 00:06:32;;;;;;;4.97;4.45;;;12.90;1.00;;;;;;5072464;28;20255;-71
2021/10/16 00:08:59;;;;;;;5.88;4.63;;;12.80;1.00;;;;;;5072578;28;20260;-71
2021/10/16 00:11:26;;;;;;;6.22;4.72;;;12.80;1.00;;;;;;5072499;28;20279;-76
2021/10/16 00:13:53;;;;;;;7.85;4.97;;;12.70;1.00;;;;;;5072583;28;20206;-74
2021/10/16 00:16:20;;;;;;;8.23;5.20;;;12.70;1.00;;;;;;5072127;28;20263;-73
2021/10/16 00:18:48;;;;;;;7.25;4.60;;;12.70;1.00;;;;;;5072689;28;20210;-76
2021/10/16 00:21:15;;;;;;;9.75;4.95;;;12.70;1.00;;;;;;5072376;28;20206;-73
2021/10/16 00:23:42;;;;;;;5.75;3.90;;;12.60;1.00;;;;;;5072549;28;20210;-77
2021/10/16 00:26:09;;;;;;;7.50;4.85;;;12.70;1.00;;;;;;5072721;28;20198;-77
2021/10/16 00:28:37;;;;;;;6.05;4.80;;;12.60;1.00;;;;;;5072137;28;20210;-74
2021/10/16 00:31:04;;;;;;;6.88;4.40;;;12.60;1.00;;;;;;5072622;28;20230;-74
2021/10/16 00:33:31;;;;;;;5.18;4.05;;;12.60;1.00;;;;;;5071837;28;20661;-75
2021/10/16 00:35:59;;;;;;;10.23;4.93;;;12.60;1.00;;;;;;5072095;28;20209;-74
2021/10/16 00:38:26;;;;;;;6.32;4.70;;;12.60;1.00;;;;;;5071480;28;20206;-74
2021/10/16 00:40:53;;;;;;;6.72;3.80;;;12.60;1.00;;;;;;5072065;28;20209;-77
2021/10/16 00:43:20;;;;;;;5.63;4.05;;;12.60;1.00;;;;;;5071534;28;20203;-77
2021/10/16 00:45:47;;;;;;;6.13;4.13;;;12.60;1.00;;;;;;5071781;28;20214;-71
2021/10/16 00:48:14;;;;;;;7.28;4.13;;;12.60;1.00;;;;;;5071374;28;20680;-76
2021/10/16 00:50:42;;;;;;;5.57;3.95;;;12.60;1.00;;;;;;5071603;28;20233;-76
2021/10/16 00:53:11;;;;;;;5.05;4.22;;;12.50;1.00;;;;;;5072225;28;20256;-76
2021/10/16 00:55:39;;;;;;;6.43;4.47;;;12.50;1.00;;;;;;5072072;28;20734;-75
2021/10/16 00:58:06;;;;;;;6.38;4.28;;;12.40;1.00;;;;;;5071674;28;20637;-76
2021/10/16 01:00:33;;;;;;;8.02;5.10;;;12.30;1.00;;;;;;5070674;28;20334;-70
2021/10/16 01:03:02;;;;;;;6.57;4.75;;;12.30;1.00;;;;;;5071749;28;20218;-77
2021/10/16 01:05:29;;;;;;;6.00;4.50;;;12.30;1.00;;;;;;5070855;28;20293;-70
2021/10/16 01:07:56;;;;;;;8.77;4.28;;;12.20;1.00;;;;;;5071469;28;20206;-70
2021/10/16 01:10:24;;;;;;;6.95;5.18;;;12.20;1.00;;;;;;5070842;28;20655;-75
2021/10/16 01:12:52;;;;;;;5.03;4.35;;;12.20;1.00;;;;;;5071082;28;20232;-70
2021/10/16 01:15:22;;;;;;;9.32;3.97;;;12.10;1.00;;;;;;5070935;28;20206;-74
2021/10/16 01:17:49;;;;;;;5.18;4.18;;;12.10;1.00;;;;;;5071599;28;20610;-74
2021/10/16 01:20:19;;;;;;;7.63;3.92;;;12.00;1.00;;;;;;5070988;28;20205;-76
2021/10/16 01:22:49;;;;;;;5.23;4.30;;;12.00;1.00;;;;;;5071179;28;20616;-74
2021/10/16 01:25:18;;;;;;;6.63;5.13;;;12.00;1.00;;;;;;5070609;28;20263;-70
2021/10/16 01:27:45;;;;;;;6.90;4.70;;;12.00;1.00;;;;;;5070699;28;20263;-71
2021/10/16 01:30:15;;;;;;;4.60;3.97;;;11.90;1.00;;;;;;5070948;28;20271;-71
2021/10/16 01:32:43;;;;;;;11.00;5.90;;;11.90;1.00;;;;;;5071025;28;20210;-76
2021/10/16 01:35:11;;;;;;;8.05;4.70;;;12.00;1.00;;;;;;5071202;28;20570;-70
2021/10/16 01:37:42;;;;;;;5.10;3.90;;;12.00;1.00;;;;;;5070891;28;20264;-76
2021/10/16 01:40:12;;;;;;;6.57;4.18;;;12.00;1.00;;;;;;5071113;28;20267;-71
2021/10/16 01:42:42;;;;;;;7.45;4.80;;;12.10;1.00;;;;;;5070624;28;20267;-71
2021/10/16 01:45:11;;;;;;;5.30;4.47;;;12.20;1.00;;;;;;5071052;28;20681;-71
2021/10/16 01:47:48;;;;;;;7.85;5.78;;;12.30;1.00;;;;;;5071074;28;20279;-75
2021/10/16 01:50:16;;;;;;;10.63;5.30;;;12.40;1.00;;;;;;5070257;28;20229;-73
2021/10/16 01:52:43;;;;;;;5.47;4.57;;;12.40;1.00;;;;;;5070960;28;20206;-70
2021/10/16 01:55:12;;;;;;;4.07;3.67;;;12.40;1.00;;;;;;5070385;28;20338;-71
2021/10/16 01:57:39;;;;;;;6.93;5.13;;;12.40;1.00;;;;;;5070660;28;20211;-71
2021/10/16 02:00:08;;;;;;;6.05;4.53;;;12.40;1.00;;;;;;5070791;28;20260;-77
2021/10/16 02:02:36;;;;;;;6.80;4.03;;;12.40;1.00;;;;;;5070555;28;20206;-71
2021/10/16 02:05:03;;;;;;;4.63;4.17;;;12.40;1.00;;;;;;5070510;28;20206;-71
2021/10/16 02:07:30;;;;;;;5.68;4.80;;;12.40;1.00;;;;;;5070360;28;20256;-74
2021/10/16 02:09:57;;;;;;;4.75;3.75;;;12.40;1.00;;;;;;5070579;28;20735;-76
2021/10/16 02:12:25;;;;;;;10.02;4.35;;;12.40;1.00;;;;;;5068833;28;20202;-77
2021/10/16 02:14:52;;;;;;;5.15;4.15;;;12.40;1.00;;;;;;5070415;28;20206;-70
2021/10/16 02:17:19;;;;;;;4.00;3.60;;;12.50;1.00;;;;;;5069807;28;20275;-76
2021/10/16 02:19:46;;;;;;;4.88;3.47;;;12.50;1.00;;;;;;5080219;28;20214;-77
2021/10/16 02:22:13;;;;;;;5.13;4.63;;;12.50;1.00;;;;;;5090205;28;20197;-70
2021/10/16 02:24:40;;;;;;;3.83;3.50;;;12.40;1.00;;;;;;5084651;28;20206;-70
2021/10/16 02:27:07;;;;;;;4.68;3.95;;;12.50;1.00;;;;;;5082758;28;20314;-71
2021/10/16 02:29:35;;;;;;;5.13;4.00;;;12.50;1.00;;;;;;5090984;28;20306;-76
2021/10/16 02:32:03;;;;;;;4.45;4.05;;;12.50;1.00;;;;;;5090106;28;20233;-71
2021/10/16 02:34:30;;;;;;;4.13;3.30;;;12.50;1.00;;;;;;5090318;28;20201;-71
2021/10/16 02:36:57;;;;;;;4.82;3.83;;;12.50;1.00;;;;;;5089937;28;20627;-71
2021/10/16 02:39:24;;;;;;;6.95;4.45;;;12.50;1.00;;;;;;5090056;28;20198;-77
2021/10/16 02:41:51;;;;;;;5.03;3.63;;;12.50;1.00;;;;;;5090723;28;20632;-75
2021/10/16 02:44:18;;;;;;;6.82;3.45;;;12.50;1.00;;;;;;5090301;28;20205;-73
2021/10/16 02:46:46;;;;;;;4.95;4.00;;;12.60;1.00;;;;;;5090236;28;20210;-77
2021/10/16 02:49:13;;;;;;;5.28;3.80;;;12.60;1.00;;;;;;5089680;28;20251;-70
2021/10/16 02:51:40;;;;;;;4.40;3.47;;;12.60;1.00;;;;;;5090368;28;20653;-75
2021/10/16 02:54:07;;;;;;;5.72;3.95;;;12.60;1.00;;;;;;5090233;28;20213;-70
2021/10/16 02:56:34;;;;;;;6.82;3.47;;;12.60;1.00;;;;;;5090375;28;20202;-77
2021/10/16 02:59:01;;;;;;;4.78;4.10;;;12.60;1.00;;;;;;5089841;28;20209;-76
2021/10/16 03:01:28;;;;;;;3.65;3.35;;;12.70;1.00;;;;;;5089887;28;20209;-76
2021/10/16 03:03:56;;;;;;;9.48;5.03;;;12.70;1.00;;;;;;5090155;28;20738;-77
2021/10/16 03:06:23;;;;;;;4.47;4.00;;;12.70;1.00;;;;;;5089703;28;20255;-71
2021/10/16 03:08:50;;;;;;;4.73;3.57;;;12.70;1.00;;;;;;5090200;28;20255;-76
2021/10/16 03:11:17;;;;;;;3.95;3.42;;;12.70;1.00;;;;;;5089588;28;20222;-77
2021/10/16 03:13:44;;;;;;;7.10;4.03;;;12.80;1.00;;;;;;5090017;28;20206;-72
2021/10/16 03:16:11;;;;;;;5.45;4.10;;;12.80;1.00;;;;;;5090105;28;20202;-73
2021/10/16 03:18:38;;;;;;;4.07;3.63;;;12.80;1.00;;;;;;5090365;28;20210;-76
2021/10/16 03:21:06;;;;;;;7.00;3.72;;;12.80;1.00;;;;;;5090279;28;20735;-73
2021/10/16 03:23:33;;;;;;;5.95;3.50;;;12.80;1.00;;;;;;5091590;28;20198;-76
2021/10/16 03:26:00;;;;;;;4.05;3.38;;;12.80;1.00;;;;;;5093657;28;20235;-74
2021/10/16 03:28:28;;;;;;;5.28;4.03;;;12.80;1.00;;;;;;5093126;28;20282;-71
2021/10/16 03:30:55;;;;;;;3.97;3.50;;;12.70;1.00;;;;;;5093581;28;20278;-77
2021/10/16 03:33:22;;;;;;;4.72;3.63;;;12.70;1.00;;;;;;5093239;28;20262;-74
2021/10/16 03:35:49;;;;;;;5.75;3.53;;;12.70;1.00;;;;;;5093769;28;20267;-76
2021/10/16 03:38:17;;;;;;;6.18;3.78;;;12.70;1.00;;;;;;5093166;28;20262;-76
2021/10/16 03:40:44;;;;;;;4.25;3.70;;;12.70;1.00;;;;;;5093383;28;20270;-77
2021/10/16 03:43:11;;;;;;;6.30;4.30;;;12.70;1.00;;;;;;5093518;28;20209;-71
2021/10/16 03:45:38;;;;;;;3.92;3.35;;;12.70;1.00;;;;;;5093797;28;20274;-70
2021/10/16 03:48:06;;;;;;;8.48;4.35;;;12.60;1.00;;;;;;5093615;28;20734;-71
2021/10/16 03:50:34;;;;;;;7.28;4.60;;;12.60;1.00;;;;;;5092771;28;20229;-76
2021/10/16 03:53:02;;;;;;;5.20;3.95;;;12.70;1.00;;;;;;5093214;28;20232;-76
2021/10/16 03:55:30;;;;;;;5.88;3.85;;;12.70;1.00;;;;;;5092728;28;20683;-75
2021/10/16 03:57:57;;;;;;;6.10;4.40;;;12.70;1.00;;;;;;5093390;28;20263;-73
2021/10/16 04:00:24;;;;;;;3.70;3.38;;;12.70;1.00;;;;;;5092683;28;20201;-77
2021/10/16 04:02:52;;;;;;;4.55;4.03;;;12.70;1.00;;;;;;5093210;28;20247;-71
2021/10/16 04:05:20;;;;;;;4.95;4.07;;;12.70;1.00;;;;;;5092806;28;20292;-70
2021/10/16 04:07:47;;;;;;;6.63;4.55;;;12.70;1.00;;;;;;5092604;28;20205;-70
2021/10/16 04:10:13;;;;;;;5.30;3.75;;;12.70;1.00;;;;;;5092903;28;20278;-70
2021/10/16 04:12:42;;;;;;;7.47;3.72;;;12.60;1.00;;;;;;5092427;28;20773;-70
2021/10/16 04:15:09;;;;;;;5.07;3.80;;;12.60;1.00;;;;;;5093263;28;20205;-72
2021/10/16 04:17:36;;;;;;;4.25;3.85;;;12.60;1.00;;;;;;5092291;28;20255;-75
2021/10/16 04:20:04;;;;;;;5.45;4.95;;;12.60;1.00;;;;;;5092570;28;20205;-70
2021/10/16 04:22:32;;;;;;;4.28;3.67;;;12.60;1.00;;;;;;5091991;28;20209;-70
2021/10/16 04:24:59;;;;;;;4.72;3.90;;;12.50;1.00;;;;;;5093012;28;20210;-75
2021/10/16 04:27:25;;;;;;;5.05;4.03;;;12.50;1.00;;;;;;5092097;28;20209;-76
2021/10/16 04:29:54;;;;;;;4.85;3.88;;;12.50;1.00;;;;;;5092395;28;20209;-73
2021/10/16 04:32:21;;;;;;;4.82;4.22;;;12.40;1.00;;;;;;5091964;28;20324;-76
2021/10/16 04:34:48;;;;;;;4.90;4.35;;;12.30;1.00;;;;;;5091322;28;20562;-76
2021/10/16 04:37:16;;;;;;;5.78;4.40;;;12.30;1.00;;;;;;5091851;28;20672;-76
2021/10/16 04:39:44;;;;;;;5.10;3.65;;;12.20;1.00;;;;;;5092443;28;20205;-70
2021/10/16 04:42:12;;;;;;;5.38;3.53;;;12.10;1.00;;;;;;5092123;28;20201;-76
2021/10/16 04:44:39;;;;;;;5.35;4.10;;;12.10;1.00;;;;;;5092610;28;20237;-76
2021/10/16 04:47:09;;;;;;;5.72;4.20;;;12.10;1.00;;;;;;5092367;28;20205;-77
2021/10/16 04:49:37;;;;;;;4.78;4.07;;;12.00;1.00;;;;;;5092037;28;20206;-70
2021/10/16 04:52:05;;;;;;;5.65;4.38;;;12.00;1.00;;;;;;5091746;28;20243;-76
2021/10/16 04:54:32;;;;;;;4.87;4.00;;;12.00;1.00;;;;;;5091882;28;20209;-76
2021/10/16 04:56:59;;;;;;;5.35;3.90;;;12.00;1.00;;;;;;5091694;28;20598;-77
2021/10/16 04:59:26;;;;;;;6.70;4.40;;;11.90;1.00;;;;;;5091502;28;20210;-72
2021/10/16 05:01:54;;;;;;;4.77;3.70;;;11.80;1.00;;;;;;5091525;28;20205;-77
2021/10/16 05:04:23;;;;;;;5.13;4.38;;;11.70;1.00;;;;;;5091121;28;20248;-76
2021/10/16 05:06:49;;;;;;;6.60;4.67;;;11.70;1.00;;;;;;5091679;28;20583;-70
2021/10/16 05:09:16;;;;;;;5.63;5.10;;;11.60;1.00;;;;;;5091334;28;20209;-70
2021/10/16 05:11:43;;;;;;;6.40;4.67;;;11.60;1.00;;;;;;5091791;28;20221;-76
2021/10/16 05:14:10;;;;;;;5.88;4.20;;;11.50;1.00;;;;;;5091551;28;20730;-76
2021/10/16 05:16:37;;;;;;;5.67;3.97;;;11.50;1.00;;;;;;5091858;28;20205;-77
2021/10/16 05:19:05;;;;;;;5.37;4.57;;;11.50;1.00;;;;;;5091299;28;20205;-72
2021/10/16 05:21:33;;;;;;;4.50;3.95;;;11.40;1.00;;;;;;5091116;28;20213;-77
2021/10/16 05:24:00;;;;;;;5.23;4.77;;;11.40;1.00;;;;;;5091252;28;20258;-71
2021/10/16 05:26:27;;;;;;;6.13;5.13;;;11.30;1.00;;;;;;5090529;28;20201;-71
2021/10/16 05:28:55;;;;;;;8.07;4.93;;;11.30;1.00;;;;;;5091290;28;20619;-74
2021/10/16 05:31:22;;;;;;;7.27;4.47;;;11.20;1.00;;;;;;5090842;28;20236;-70
2021/10/16 05:33:50;;;;;;;6.87;5.33;;;11.10;1.00;;;;;;5091128;28;20689;-71
2021/10/16 05:36:17;;;;;;;5.27;4.63;;;11.20;1.00;;;;;;5091017;28;20209;-76
2021/10/16 05:38:46;;;;;;;6.83;4.43;;;11.10;1.00;;;;;;5090749;28;20270;-76
2021/10/16 05:41:13;;;;;;;5.40;4.73;;;11.00;1.00;;;;;;5090678;28;20734;-70
2021/10/16 05:43:40;;;;;;;5.57;4.40;;;10.90;1.00;;;;;;5090705;28;20214;-70
2021/10/16 05:46:07;;;;;;;6.10;5.27;;;10.90;1.00;;;;;;5091182;28;20209;-73
2021/10/16 05:48:34;;;;;;;7.20;5.10;;;11.00;1.00;;;;;;5090169;28;20750;-77
2021/10/16 05:51:01;;;;;;;6.63;5.60;;;10.90;1.00;;;;;;5091136;28;20205;-76
2021/10/16 05:53:28;;;;;;;6.60;5.13;;;11.00;1.00;;;;;;5090441;28;20205;-73
2021/10/16 05:55:56;;;;;;;5.83;4.50;;;10.90;1.00;;;;;;5090780;28;20205;-71
2021/10/16 05:58:25;;;;;;;7.20;4.53;;;10.90;1.00;;;;;;5090961;28;20201;-72
2021/10/16 06:00:52;;;;;;;5.10;4.67;;;10.90;1.00;;;;;;5090825;28;20201;-76
2021/10/16 06:03:19;;;;;;;13.03;6.67;;;10.80;1.00;;;;;;5090442;28;20228;-70
2021/10/16 06:05:46;;;;;;;7.40;5.07;;;10.70;1.00;;;;;;5090646;28;20201;-75
2021/10/16 06:08:14;;;;;;;5.67;5.00;;;10.80;1.00;;;;;;5090549;28;20601;-72
2021/10/16 06:10:41;;;;;;;6.30;5.20;;;10.80;1.00;;;;;;5090529;28;20205;-71
2021/10/16 06:13:09;;;;;;;5.33;4.83;;;10.80;1.00;;;;;;5091103;28;20286;-73
2021/10/16 06:15:36;;;;;;;6.20;5.30;;;10.70;1.00;;;;;;5090592;28;20630;-73
2021/10/16 06:18:04;;;;;;;6.63;6.00;;;10.70;1.00;;;;;;5090550;28;20204;-71
2021/10/16 06:20:31;;;;;;;7.17;5.27;;;10.70;1.00;;;;;;5090132;28;20708;-73
2021/10/16 06:22:58;;;;;;;6.83;5.47;;;10.70;1.00;;;;;;5090361;28;20262;-70
2021/10/16 06:25:25;;;;;;;7.50;5.30;;;10.80;1.00;;;;;;5090059;28;20262;-76
2021/10/16 06:27:52;;;;;;;5.93;5.27;;;10.80;1.00;;;;;;5090207;28;20630;-70
2021/10/16 06:30:21;;;;;;;7.23;5.07;;;10.80;1.00;;;;;;5090232;28;20197;-74
2021/10/16 06:32:48;;;;;;;5.47;4.60;;;10.90;1.00;;;;;;5090408;28;20645;-70
2021/10/16 06:35:15;;;;;;;6.90;5.10;;;10.90;1.00;;;;;;5090051;28;20262;-77
2021/10/16 06:37:42;;;;;;;6.27;5.00;;;10.80;1.00;;;;;;5090270;28;20213;-77
2021/10/16 06:40:09;;;;;;;6.00;5.23;;;10.80;1.00;;;;;;5090579;28;20209;-75
2021/10/16 06:42:36;;;;;;;9.37;6.33;;;10.90;1.00;;;;;;5090625;28;20205;-78
2021/10/16 06:45:04;;;;;;;6.07;5.37;;;10.90;1.00;;;;;;5090329;28;20251;-76
2021/10/16 06:47:32;;;;;;;6.80;5.60;;;11.00;1.00;;;;;;5089981;28;20202;-69
2021/10/16 06:49:59;;;;;;;9.40;5.17;;;11.00;1.00;;;;;;5090363;28;20290;-75
2021/10/16 06:52:26;;;;;;;8.13;5.47;;;11.10;1.00;;;;;;5089786;28;20225;-76
2021/10/16 06:54:53;;;;;;;8.07;5.80;;;11.10;1.00;;;;;;5090582;28;20251;-77
2021/10/16 06:57:20;;;;;;;10.13;5.60;;;11.10;1.00;;;;;;5089887;28;20209;-71
2021/10/16 06:59:47;;;;;;;8.27;5.30;;;11.10;1.00;;;;;;5094327;28;20258;-77
2021/10/16 07:02:14;;;;;;;6.07;5.00;;;11.20;1.00;;;;;;5093617;28;20277;-70
2021/10/16 07:04:42;;;;;;;7.33;5.93;;;11.30;1.00;;;;;;5094238;28;20259;-70
2021/10/16 07:07:09;;;;;;;8.53;6.00;;;11.30;1.00;;;;;;5093963;28;20553;-71
2021/10/16 07:09:36;;;;;;;8.20;5.27;;;11.50;1.00;;;;;;5094354;28;20201;-76
2021/10/16 07:12:03;;;;;;;6.47;5.80;;;11.60;1.00;;;;;;5094210;28;20232;-75
2021/10/16 07:14:30;;;;;;;6.17;5.53;;;11.60;1.00;;;;;;5093558;28;20263;-75
2021/10/16 07:16:57;;;;;;;7.00;5.73;;;11.80;1.00;;;;;;5093837;28;20205;-77
2021/10/16 07:19:24;;;;;;;6.90;4.53;;;11.90;1.00;;;;;;5093086;28;20206;-70
2021/10/16 07:21:52;;;;;;;6.33;5.40;;;12.10;1.00;;;;;;5094102;28;20263;-75
2021/10/16 07:24:19;;;;;;;6.47;5.50;;;12.10;1.00;;;;;;5093339;28;20210;-71
2021/10/16 07:26:46;;;;;;;7.77;5.70;;;12.20;1.00;;;;;;5093469;28;20201;-71
2021/10/16 07:29:13;;;;;;;8.13;5.43;;;12.20;1.00;;;;;;5093296;28;20274;-74
2021/10/16 07:31:41;;;;;;;6.20;5.50;;;12.20;1.00;;;;;;5093407;28;20209;-74
2021/10/16 07:34:08;;;;;;;6.53;5.57;;;12.30;1.00;;;;;;5093797;28;20213;-75
2021/10/16 07:36:37;;;;;;;6.13;5.20;;;12.40;1.00;;;;;;5093307;28;20210;-77
2021/10/16 07:39:08;;;;;;;5.88;5.30;;;12.50;1.00;;;;;;5093615;28;20296;-75
2021/10/16 07:41:37;;;;;;;7.43;5.22;;;12.60;1.00;;;;;;5093446;28;20206;-76
2021/10/16 07:44:04;;;;;;;5.67;5.07;;;12.70;1.00;;;;;;5093438;28;20270;-77
2021/10/16 07:46:32;;;;;;;7.27;6.30;;;12.80;1.00;;;;;;5092892;28;20570;-76
2021/10/16 07:48:59;;;;;;;7.07;4.80;;;12.80;1.00;;;;;;5093306;28;20270;-73
2021/10/16 07:51:26;;;;;;;5.53;4.63;;;12.80;1.00;;;;;;5093137;28;20637;-75
2021/10/16 07:53:53;;;;;;;8.77;5.40;;;12.90;1.00;;;;;;5093176;28;20295;-75
2021/10/16 07:56:21;;;;;;;5.70;5.03;;;13.10;1.00;;;;;;5093077;28;20255;-75
2021/10/16 07:58:48;;;;;;;6.53;4.60;;;13.20;1.00;;;;;;5092623;28;20255;-72
2021/10/16 08:01:15;;;;;;;7.03;5.30;;;13.30;1.00;;;;;;5092577;28;20665;-73
2021/10/16 08:03:42;;;;;;;7.38;5.40;;;13.40;1.00;;;;;;5093030;28;20266;-70
2021/10/16 08:06:09;;;;;;;5.65;5.13;;;13.50;1.00;;;;;;5093019;28;20206;-70
2021/10/16 08:08:36;;;;;;;6.10;5.43;;;13.50;1.00;;;;;;5093152;28;20201;-74
2021/10/16 08:11:03;;;;;;;5.82;5.22;;;13.60;1.00;;;;;;5092687;28;20205;-74
2021/10/16 08:13:32;;;;;;;6.47;4.93;;;13.60;1.00;;;;;;5091969;28;20700;-75
2021/10/16 08:15:59;;;;;;;7.18;5.85;;;13.70;1.00;;;;;;5092539;28;20214;-76
2021/10/16 08:18:26;;;;;;;7.28;5.40;;;13.80;1.00;;;;;;5092716;28;20253;-75
2021/10/16 08:20:53;;;;;;;6.28;5.03;;;13.90;1.00;;;;;;5092770;28;20206;-76
2021/10/16 08:23:20;;;;;;;5.60;5.07;;;13.90;1.00;;;;;;5092219;28;20197;-76
2021/10/16 08:25:47;;;;;;;6.20;5.32;;;14.00;1.00;;;;;;5092362;28;20201;-75
2021/10/16 08:28:15;;;;;;;5.78;4.95;;;14.10;1.00;;;;;;5091729;28;20201;-75
2021/10/16 08:30:50;;;;;;;6.05;5.13;;;14.20;1.00;;;;;;5092819;28;20631;-76
2021/10/16 08:33:17;;;;;;;6.57;5.78;;;14.30;1.00;;;;;;5091950;28;20240;-76
2021/10/16 08:35:44;;;;;;;7.15;5.82;;;14.30;1.00;;;;;;5092403;28;20643;-74
2021/10/16 08:38:11;;;;;;;6.30;5.70;;;14.30;1.00;;;;;;5092150;28;20286;-76
2021/10/16 08:40:39;;;;;;;6.85;5.72;;;14.30;1.00;;;;;;5092739;28;20205;-71
2021/10/16 08:43:07;;;;;;;6.70;6.10;;;14.40;1.00;;;;;;5092667;28;20251;-75
2021/10/16 08:45:35;;;;;;;7.90;6.63;;;14.70;1.00;;;;;;5091890;28;20255;-75
2021/10/16 08:48:04;;;;;;;6.32;5.47;;;14.80;1.00;;;;;;5092472;28;20213;-75
2021/10/16 08:50:32;;;;;;;7.75;5.45;;;14.90;1.00;;;;;;5091443;28;20263;-75
2021/10/16 08:52:59;;;;;;;7.03;6.07;;;14.90;1.00;;;;;;5092040;28;20638;-75
2021/10/16 08:55:27;;;;;;;5.80;5.18;;;15.10;1.00;;;;;;5091281;28;20263;-75
2021/10/16 08:57:54;;;;;;;5.32;4.82;;;15.10;1.00;;;;;;5091797;28;20209;-76
2021/10/16 09:00:52;;;;;;;6.68;5.90;;;15.20;1.00;;;;;;5091649;28;20248;-74
2021/10/16 09:03:24;;;;;;;6.40;4.50;;;15.30;1.00;;;;;;5082980;28;20206;-76
2021/10/16 09:06:15;;;;;;;4.63;4.10;;;15.20;1.00;;;;;;5091544;28;20205;-75
2021/10/16 09:08:46;;;;;;;7.43;5.40;;;15.40;1.00;;;;;;5091963;28;20217;-76
2021/10/16 09:11:15;;;;;;;4.70;4.30;;;15.40;1.00;;;;;;5091304;28;20259;-76
2021/10/16 09:13:45;;;;;;;6.45;4.95;;;15.40;1.00;;;;;;5091757;28;20290;-76
2021/10/16 09:16:20;;;;;;;7.75;4.70;;;15.50;1.00;;;;;;5091036;28;20205;-70
2021/10/16 09:19:00;;;;;;;4.60;4.07;;;15.70;1.00;;;;;;5091442;28;20200;-76
2021/10/16 09:21:30;;;;;;;4.25;3.85;;;15.80;1.00;;;;;;5063331;28;20209;-75
2021/10/16 09:24:06;;;;;;;5.90;4.22;;;15.90;1.00;;;;;;5091702;28;20633;-76
2021/10/16 09:26:34;;;;;;;6.03;4.30;;;15.90;1.00;;;;;;5063063;28;20665;-76
2021/10/16 09:29:03;;;;;;;7.63;5.25;;;16.00;1.00;;;;;;5091795;28;20209;-75
2021/10/16 09:31:36;;;;;;;6.53;3.88;;;16.40;1.00;;;;;;5090838;28;20202;-75
2021/10/16 09:34:05;;;;;;;4.90;3.85;;;17.10;1.00;;;;;;5091332;28;20236;-76
2021/10/16 09:36:34;;;;;;;3.38;3.08;;;16.90;1.00;;;;;;5090823;28;20270;-76
2021/10/16 09:39:02;;;;;;;5.50;3.58;;;17.00;1.00;;;;;;5091280;28;20206;-74
2021/10/16 09:41:35;;;;;;;5.95;3.92;;;17.10;1.00;;;;;;5090670;28;20669;-76
2021/10/16 09:44:03;;;;;;;4.43;3.40;;;17.20;99.90;;;;;;5090970;28;20208;-76
2021/10/16 09:46:30;;;;;;;4.78;3.58;;;17.20;99.90;;;;;;5090957;28;20215;-76
2021/10/16 09:49:08;;;;;;;10.98;4.07;;;17.10;99.90;;;;;;5090894;28;20205;-78
2021/10/16 09:51:51;;;;;;;4.20;3.78;;;17.10;99.90;;;;;;5091242;28;20290;-77
2021/10/16 09:54:18;;;;;;;4.93;4.28;;;18.30;99.90;;;;;;5090149;28;20719;-77
2021/10/16 09:56:45;;;;;;;6.85;4.28;;;19.10;99.90;;;;;;5091160;28;20322;-75
2021/10/16 09:59:17;;;;;;;5.55;4.20;;;18.40;99.90;;;;;;5090494;28;20224;-71
2021/10/16 10:01:46;;;;;;;5.43;3.50;;;19.20;99.90;;;;;;5091083;28;20218;-71
2021/10/16 10:04:17;;;;;;;9.52;4.15;;;18.70;99.90;;;;;;5090367;28;20209;-72
2021/10/16 10:06:46;;;;;;;4.47;3.22;;;18.80;99.90;;;;;;5091000;28;20207;-71
2021/10/16 10:09:13;;;;;;;4.15;3.67;;;18.80;99.90;;;;;;5089906;28;20745;-74
2021/10/16 10:11:45;;;;;;;3.70;3.40;;;19.90;99.90;;;;;;5090748;28;20209;-75
2021/10/16 10:14:13;;;;;;;4.05;3.72;;;18.40;99.90;;;;;;5090310;28;21796;-77
2021/10/16 10:16:41;;;;;;;3.45;3.08;;;17.50;99.90;;;;;;5090714;28;20202;-77
2021/10/16 10:19:09;;;;;;;4.75;4.35;;;17.20;99.90;;;;;;5090642;28;20213;-77
2021/10/16 10:21:38;;;;;;;5.35;4.75;;;17.40;99.90;;;;;;5090533;28;20259;-72
2021/10/16 10:24:08;;;;;;;4.65;4.20;;;17.60;99.90;;;;;;5090858;28;20210;-71
2021/10/16 10:26:36;;;;;;;4.85;4.45;;;17.70;99.90;;;;;;5090467;28;20201;-77
2021/10/16 10:29:05;;;;;;;4.32;2.83;;;17.70;99.90;;;;;;5090463;28;20684;-73
2021/10/16 10:31:55;;;;;;;5.40;2.90;;;17.50;99.90;;;;;;5090202;28;20679;-78
2021/10/16 10:34:25;;;;;;;4.93;3.05;;;17.70;99.90;;;;;;5093966;28;20282;-76
2021/10/16 10:36:58;;;;;;;2.97;2.67;;;17.90;99.90;;;;;;5094483;28;20753;-77
2021/10/16 10:39:56;;;;;;;4.50;3.05;;;18.20;99.90;;;;;;5093860;28;20205;-76
2021/10/16 10:42:50;;;;;;;4.57;2.78;;;17.80;99.90;;;;;;5038531;28;20804;-72
2021/10/16 10:45:28;;;;;;;4.75;3.83;;;17.30;99.90;;;;;;5092544;28;20209;-72
2021/10/16 10:48:01;;;;;;;4.22;3.83;;;17.40;99.90;;;;;;5094657;28;20217;-72
2021/10/16 10:50:55;;;;;;;5.45;4.03;;;17.10;99.90;;;;;;5093740;28;20665;-71
2021/10/16 10:53:41;;;;;;;4.78;3.10;;;17.20;99.90;;;;;;5093956;28;20225;-71
2021/10/16 10:56:19;;;;;;;3.17;2.72;;;17.60;99.90;;;;;;5070144;28;20288;-77
2021/10/16 10:59:12;;;;;;;5.95;3.90;;;17.60;99.90;;;;;;5094288;28;20622;-72
2021/10/16 11:02:03;;;;;;;3.63;3.33;;;17.60;99.90;;;;;;5094671;28;20675;-71
2021/10/16 11:04:38;;;;;;;5.68;3.45;;;17.70;99.90;;;;;;5093814;28;20656;-70
2021/10/16 11:07:07;;;;;;;4.82;4.30;;;17.80;99.90;;;;;;5094087;28;20212;-71
2021/10/16 11:09:35;;;;;;;4.75;3.90;;;17.70;99.90;;;;;;5093785;28;20669;-77
2021/10/16 11:12:02;;;;;;;4.22;3.83;;;17.70;99.90;;;;;;5094299;28;20213;-78
2021/10/16 11:14:34;;;;;;;3.40;3.10;;;17.70;99.90;;;;;;5093311;28;20233;-72
2021/10/16 11:17:03;;;;;;;3.92;2.67;;;17.80;99.90;;;;;;5093733;28;20665;-77
2021/10/16 11:19:30;;;;;;;8.38;3.05;;;17.50;99.90;;;;;;5093228;28;20730;-77
2021/10/16 11:21:59;;;;;;;3.67;3.38;;;17.60;99.90;;;;;;5093578;28;20631;-77
2021/10/16 11:24:30;;;;;;;5.03;3.08;;;17.50;99.90;;;;;;5093104;28;20205;-76
2021/10/16 11:27:00;;;;;;;13.57;4.10;;;17.40;99.90;;;;;;5093563;28;20684;-72
2021/10/16 11:29:32;;;;;;;4.60;3.00;;;17.60;99.90;;;;;;5093405;28;20266;-72
2021/10/16 11:32:15;;;;;;;6.50;3.72;;;17.60;99.90;;;;;;5093415;28;20609;-78
2021/10/16 11:34:54;;;;;;;5.68;3.13;;;17.60;99.90;;;;;;5093631;28;20229;-73
2021/10/16 11:37:41;;;;;;;2.90;2.67;;;17.70;99.90;;;;;;5092945;28;20205;-72
2021/10/16 11:40:10;;;;;;;3.63;2.72;;;17.90;99.90;;;;;;5093573;28;20209;-79
2021/10/16 11:42:39;;;;;;;4.20;3.08;;;17.90;99.90;;;;;;5093794;28;20209;-72
2021/10/16 11:45:18;;;;;;;5.20;2.40;;;17.80;99.90;;;;;;5093159;28;20205;-73
2021/10/16 11:47:49;;;;;;;3.20;2.65;;;18.00;99.90;;;;;;5093415;28;20202;-77
2021/10/16 11:50:18;;;;;;;2.85;2.63;;;18.30;99.90;;;;;;5092643;28;20202;-74
2021/10/16 11:52:50;;;;;;;2.47;2.17;;;18.30;99.90;;;;;;5093221;28;20292;-72
2021/10/16 11:55:20;;;;;;;3.15;2.45;;;18.40;99.90;;;;;;5092658;28;20205;-75
2021/10/16 11:57:49;;;;;;;4.13;2.42;;;18.40;99.90;;;;;;5093578;28;20545;-74
2021/10/16 12:00:17;;;;;;;4.97;3.25;;;18.50;99.90;;;;;;5092741;28;20271;-72
2021/10/16 12:02:44;;;;;;;3.38;2.60;;;18.50;99.90;;;;;;5065356;28;20627;-71
2021/10/16 12:05:12;;;;;;;3.53;2.80;;;18.30;99.90;;;;;;5092881;28;20622;-77
2021/10/16 12:07:39;;;;;;;3.40;3.00;;;18.30;99.90;;;;;;5092929;28;20209;-73
2021/10/16 12:10:24;;;;;;;5.43;3.60;;;18.30;99.90;;;;;;5093544;28;20209;-72
2021/10/16 12:13:05;;;;;;;3.13;2.83;;;18.20;99.90;;;;;;5092852;28;20269;-71
2021/10/16 12:15:40;;;;;;;3.10;2.60;;;18.30;99.90;;;;;;5092682;28;20231;-72
2021/10/16 12:18:16;;;;;;;3.45;2.78;;;18.50;99.90;;;;;;5066908;28;20250;-72
2021/10/16 12:20:45;;;;;;;3.28;2.92;;;18.50;99.90;;;;;;5092491;28;20212;-76
2021/10/16 12:23:12;;;;;;;3.28;2.75;;;18.40;99.90;;;;;;5092922;28;20210;-72
2021/10/16 12:25:50;;;;;;;3.08;2.70;;;18.30;99.90;;;;;;5092823;28;20254;-73
2021/10/16 12:28:20;;;;;;;2.50;2.30;;;18.40;99.90;;;;;;5085835;28;20209;-78
2021/10/16 12:31:10;;;;;;;3.53;2.83;;;18.40;99.90;;;;;;5092592;28;20690;-78
2021/10/16 12:34:07;;;;;;;3.85;3.00;;;18.50;99.90;;;;;;5092393;28;20680;-72
2021/10/16 12:36:38;;;;;;;4.82;3.17;;;18.50;99.90;;;;;;5091913;28;20209;-73
2021/10/16 12:39:08;;;;;;;4.82;3.30;;;18.50;99.90;;;;;;5092728;28;20206;-74
2021/10/16 12:41:37;;;;;;;4.40;3.22;;;18.50;99.90;;;;;;5092315;28;20213;-72
2021/10/16 12:44:23;;;;;;;6.25;3.83;;;18.50;99.90;;;;;;5092951;28;20252;-78
2021/10/16 12:47:04;;;;;;;5.65;4.30;;;18.40;99.90;;;;;;5092006;28;20696;-72
2021/10/16 12:49:33;;;;;;;6.00;3.53;;;18.40;99.90;;;;;;5091805;28;20201;-71
2021/10/16 12:52:01;;;;;;;3.55;3.25;;;18.50;99.90;;;;;;5091830;28;20206;-71
2021/10/16 12:54:33;;;;;;;3.22;2.92;;;18.50;99.90;;;;;;5091825;28;20229;-77
2021/10/16 12:57:05;;;;;;;3.20;2.90;;;18.60;99.90;;;;;;5090896;28;20206;-72
2021/10/16 12:59:33;;;;;;;4.75;2.72;;;18.70;99.90;;;;;;5091937;28;20262;-78
2021/10/16 13:02:00;;;;;;;5.13;2.95;;;18.50;99.90;;;;;;5091642;28;20266;-71
2021/10/16 13:04:27;;;;;;;4.28;2.83;;;18.40;99.90;;;;;;5091277;28;20205;-71
2021/10/16 13:06:54;;;;;;;3.33;2.67;;;18.50;99.90;;;;;;5092130;28;20255;-72